sensor_id;sensor_type;location;lat;lon;timestamp;P1;durP1;ratioP1;P2;durP2;ratioP2
39502;SDS011;26970;49.900;10.774;2023-05-10T00:00:30;8.35;;;5.93;;
39502;SDS011;26970;49.900;10.774;2023-05-10T00:02:56;8.75;;;6.25;;
39502;SDS011;26970;49.900;10.774;2023-05-10T00:05:21;11.07;;;6.65;;
39502;SDS011;26970;49.900;10.774;2023-05-10T00:07:47;9.63;;;6.95;;
39502;SDS011;26970;49.900;10.774;2023-05-10T00:10:13;9.43;;;7.35;;
39502;SDS011;26970;49.900;10.774;2023-05-10T00:12:38;10.45;;;7.90;;
39502;SDS011;26970;49.900;10.774;2023-05-10T00:15:04;12.15;;;7.68;;
39502;SDS011;26970;49.900;10.774;2023-05-10T00:17:30;11.75;;;8.30;;
39502;SDS011;26970;49.900;10.774;2023-05-10T00:19:56;9.82;;;8.18;;
39502;SDS011;26970;49.900;10.774;2023-05-10T00:22:22;10.70;;;9.02;;
39502;SDS011;26970;49.900;10.774;2023-05-10T00:24:48;11.52;;;8.23;;
39502;SDS011;26970;49.900;10.774;2023-05-10T00:27:13;9.73;;;8.10;;
39502;SDS011;26970;49.900;10.774;2023-05-10T00:29:39;10.30;;;7.47;;
39502;SDS011;26970;49.900;10.774;2023-05-10T00:32:04;11.48;;;7.85;;
39502;SDS011;26970;49.900;10.774;2023-05-10T00:34:30;8.90;;;6.95;;
39502;SDS011;26970;49.900;10.774;2023-05-10T00:36:56;9.25;;;7.57;;
39502;SDS011;26970;49.900;10.774;2023-05-10T00:39:22;10.82;;;7.63;;
39502;SDS011;26970;49.900;10.774;2023-05-10T00:41:47;10.80;;;7.30;;
39502;SDS011;26970;49.900;10.774;2023-05-10T00:44:13;10.60;;;8.00;;
39502;SDS011;26970;49.900;10.774;2023-05-10T00:46:39;9.60;;;7.93;;
39502;SDS011;26970;49.900;10.774;2023-05-10T00:49:05;10.45;;;7.78;;
39502;SDS011;26970;49.900;10.774;2023-05-10T00:51:31;9.80;;;8.15;;
39502;SDS011;26970;49.900;10.774;2023-05-10T00:53:57;10.93;;;7.57;;
39502;SDS011;26970;49.900;10.774;2023-05-10T00:56:23;9.88;;;8.40;;
39502;SDS011;26970;49.900;10.774;2023-05-10T00:58:50;12.85;;;8.85;;
39502;SDS011;26970;49.900;10.774;2023-05-10T01:01:16;11.32;;;8.20;;
39502;SDS011;26970;49.900;10.774;2023-05-10T01:03:42;11.50;;;8.18;;
39502;SDS011;26970;49.900;10.774;2023-05-10T01:06:08;12.80;;;8.57;;
39502;SDS011;26970;49.900;10.774;2023-05-10T01:08:35;10.15;;;8.80;;
39502;SDS011;26970;49.900;10.774;2023-05-10T01:11:01;14.73;;;8.77;;
39502;SDS011;26970;49.900;10.774;2023-05-10T01:15:52;12.38;;;8.98;;
39502;SDS011;26970;49.900;10.774;2023-05-10T01:18:18;11.23;;;9.73;;
39502;SDS011;26970;49.900;10.774;2023-05-10T01:20:46;11.73;;;9.15;;
39502;SDS011;26970;49.900;10.774;2023-05-10T01:26:18;11.48;;;9.10;;
39502;SDS011;26970;49.900;10.774;2023-05-10T01:34:47;14.77;;;10.30;;
39502;SDS011;26970;49.900;10.774;2023-05-10T01:37:57;10.90;;;9.38;;
39502;SDS011;26970;49.900;10.774;2023-05-10T01:40:19;13.68;;;8.70;;
39502;SDS011;26970;49.900;10.774;2023-05-10T01:42:54;11.68;;;9.57;;
39502;SDS011;26970;49.900;10.774;2023-05-10T01:45:30;13.90;;;9.75;;
39502;SDS011;26970;49.900;10.774;2023-05-10T01:48:04;12.93;;;9.38;;
39502;SDS011;26970;49.900;10.774;2023-05-10T01:50:34;10.85;;;8.80;;
39502;SDS011;26970;49.900;10.774;2023-05-10T01:53:01;10.68;;;9.00;;
39502;SDS011;26970;49.900;10.774;2023-05-10T01:55:29;12.00;;;8.77;;
39502;SDS011;26970;49.900;10.774;2023-05-10T01:58:07;14.35;;;9.95;;
39502;SDS011;26970;49.900;10.774;2023-05-10T02:00:35;12.98;;;9.25;;
39502;SDS011;26970;49.900;10.774;2023-05-10T02:03:05;13.05;;;9.77;;
39502;SDS011;26970;49.900;10.774;2023-05-10T02:05:33;12.13;;;9.02;;
39502;SDS011;26970;49.900;10.774;2023-05-10T02:08:01;12.50;;;9.65;;
39502;SDS011;26970;49.900;10.774;2023-05-10T02:10:30;14.70;;;10.10;;
39502;SDS011;26970;49.900;10.774;2023-05-10T02:12:59;12.80;;;9.60;;
39502;SDS011;26970;49.900;10.774;2023-05-10T02:15:26;12.77;;;9.23;;
39502;SDS011;26970;49.900;10.774;2023-05-10T02:17:54;12.57;;;9.00;;
39502;SDS011;26970;49.900;10.774;2023-05-10T02:20:21;12.27;;;9.02;;
39502;SDS011;26970;49.900;10.774;2023-05-10T02:22:49;10.70;;;8.68;;
39502;SDS011;26970;49.900;10.774;2023-05-10T02:25:17;13.90;;;9.02;;
39502;SDS011;26970;49.900;10.774;2023-05-10T02:27:45;11.57;;;8.98;;
39502;SDS011;26970;49.900;10.774;2023-05-10T02:30:12;11.35;;;8.82;;
39502;SDS011;26970;49.900;10.774;2023-05-10T02:32:38;13.32;;;9.10;;
39502;SDS011;26970;49.900;10.774;2023-05-10T02:35:05;10.80;;;8.57;;
39502;SDS011;26970;49.900;10.774;2023-05-10T02:37:32;11.68;;;8.57;;
39502;SDS011;26970;49.900;10.774;2023-05-10T02:39:59;11.20;;;8.98;;
39502;SDS011;26970;49.900;10.774;2023-05-10T02:42:28;11.35;;;8.50;;
39502;SDS011;26970;49.900;10.774;2023-05-10T02:44:56;11.30;;;8.05;;
39502;SDS011;26970;49.900;10.774;2023-05-10T02:47:25;12.43;;;8.27;;
39502;SDS011;26970;49.900;10.774;2023-05-10T02:49:52;11.25;;;7.60;;
39502;SDS011;26970;49.900;10.774;2023-05-10T02:52:21;10.02;;;7.70;;
39502;SDS011;26970;49.900;10.774;2023-05-10T02:54:50;14.38;;;7.55;;
39502;SDS011;26970;49.900;10.774;2023-05-10T02:57:22;11.77;;;8.27;;
39502;SDS011;26970;49.900;10.774;2023-05-10T02:59:51;11.23;;;8.52;;
39502;SDS011;26970;49.900;10.774;2023-05-10T03:02:16;11.43;;;7.90;;
39502;SDS011;26970;49.900;10.774;2023-05-10T03:04:42;8.93;;;7.43;;
39502;SDS011;26970;49.900;10.774;2023-05-10T03:07:08;8.85;;;6.93;;
39502;SDS011;26970;49.900;10.774;2023-05-10T03:09:33;7.40;;;6.35;;
39502;SDS011;26970;49.900;10.774;2023-05-10T03:17:19;7.45;;;6.18;;
39502;SDS011;26970;49.900;10.774;2023-05-10T03:20:03;10.02;;;6.03;;
39502;SDS011;26970;49.900;10.774;2023-05-10T03:22:34;5.75;;;4.63;;
39502;SDS011;26970;49.900;10.774;2023-05-10T03:25:04;8.20;;;4.78;;
39502;SDS011;26970;49.900;10.774;2023-05-10T03:27:31;5.63;;;3.40;;
39502;SDS011;26970;49.900;10.774;2023-05-10T03:29:58;4.60;;;3.22;;
39502;SDS011;26970;49.900;10.774;2023-05-10T03:32:26;5.07;;;2.85;;
39502;SDS011;26970;49.900;10.774;2023-05-10T03:34:55;4.50;;;3.30;;
39502;SDS011;26970;49.900;10.774;2023-05-10T03:37:20;4.00;;;3.00;;
39502;SDS011;26970;49.900;10.774;2023-05-10T03:39:46;4.63;;;2.67;;
39502;SDS011;26970;49.900;10.774;2023-05-10T03:42:12;3.63;;;2.60;;
39502;SDS011;26970;49.900;10.774;2023-05-10T03:44:40;2.67;;;2.03;;
39502;SDS011;26970;49.900;10.774;2023-05-10T03:47:06;3.97;;;2.25;;
39502;SDS011;26970;49.900;10.774;2023-05-10T03:49:31;4.10;;;2.55;;
39502;SDS011;26970;49.900;10.774;2023-05-10T03:51:57;3.22;;;1.90;;
39502;SDS011;26970;49.900;10.774;2023-05-10T03:54:23;2.63;;;1.58;;
39502;SDS011;26970;49.900;10.774;2023-05-10T03:56:48;2.70;;;1.90;;
39502;SDS011;26970;49.900;10.774;2023-05-10T03:59:14;3.13;;;1.55;;
39502;SDS011;26970;49.900;10.774;2023-05-10T04:01:40;2.80;;;1.50;;
39502;SDS011;26970;49.900;10.774;2023-05-10T04:04:05;3.22;;;1.85;;
39502;SDS011;26970;49.900;10.774;2023-05-10T04:06:31;3.85;;;1.60;;
39502;SDS011;26970;49.900;10.774;2023-05-10T04:08:57;1.80;;;1.60;;
39502;SDS011;26970;49.900;10.774;2023-05-10T04:11:25;3.83;;;1.80;;
39502;SDS011;26970;49.900;10.774;2023-05-10T04:13:50;3.08;;;1.75;;
39502;SDS011;26970;49.900;10.774;2023-05-10T04:16:16;2.83;;;1.70;;
39502;SDS011;26970;49.900;10.774;2023-05-10T04:18:42;2.85;;;1.58;;
39502;SDS011;26970;49.900;10.774;2023-05-10T04:21:11;3.38;;;1.73;;
39502;SDS011;26970;49.900;10.774;2023-05-10T04:23:38;2.28;;;1.63;;
39502;SDS011;26970;49.900;10.774;2023-05-10T04:26:03;2.35;;;1.60;;
39502;SDS011;26970;49.900;10.774;2023-05-10T04:28:29;1.70;;;1.60;;
39502;SDS011;26970;49.900;10.774;2023-05-10T04:31:05;2.30;;;1.73;;
39502;SDS011;26970;49.900;10.774;2023-05-10T04:33:31;3.10;;;1.75;;
39502;SDS011;26970;49.900;10.774;2023-05-10T04:35:58;2.35;;;1.65;;
39502;SDS011;26970;49.900;10.774;2023-05-10T04:38:24;2.15;;;1.58;;
39502;SDS011;26970;49.900;10.774;2023-05-10T04:40:49;1.65;;;1.50;;
39502;SDS011;26970;49.900;10.774;2023-05-10T04:43:15;2.53;;;1.80;;
39502;SDS011;26970;49.900;10.774;2023-05-10T04:45:41;2.20;;;1.60;;
39502;SDS011;26970;49.900;10.774;2023-05-10T04:48:07;2.78;;;1.50;;
39502;SDS011;26970;49.900;10.774;2023-05-10T04:50:32;5.30;;;1.70;;
39502;SDS011;26970;49.900;10.774;2023-05-10T04:52:58;1.92;;;1.40;;
39502;SDS011;26970;49.900;10.774;2023-05-10T04:55:24;3.75;;;1.70;;
39502;SDS011;26970;49.900;10.774;2023-05-10T04:57:49;2.70;;;1.52;;
39502;SDS011;26970;49.900;10.774;2023-05-10T05:00:15;2.97;;;1.30;;
39502;SDS011;26970;49.900;10.774;2023-05-10T05:02:44;6.30;;;1.42;;
39502;SDS011;26970;49.900;10.774;2023-05-10T05:05:10;1.73;;;1.50;;
39502;SDS011;26970;49.900;10.774;2023-05-10T05:07:36;2.25;;;1.50;;
39502;SDS011;26970;49.900;10.774;2023-05-10T05:10:03;2.13;;;1.48;;
39502;SDS011;26970;49.900;10.774;2023-05-10T05:12:32;4.13;;;1.30;;
39502;SDS011;26970;49.900;10.774;2023-05-10T05:14:58;2.67;;;1.40;;
39502;SDS011;26970;49.900;10.774;2023-05-10T05:17:24;1.52;;;1.42;;
39502;SDS011;26970;49.900;10.774;2023-05-10T05:19:49;1.40;;;1.30;;
39502;SDS011;26970;49.900;10.774;2023-05-10T05:22:15;1.52;;;1.40;;
39502;SDS011;26970;49.900;10.774;2023-05-10T05:24:40;1.52;;;1.30;;
39502;SDS011;26970;49.900;10.774;2023-05-10T05:27:06;1.50;;;1.40;;
39502;SDS011;26970;49.900;10.774;2023-05-10T05:29:32;1.40;;;1.30;;
39502;SDS011;26970;49.900;10.774;2023-05-10T05:31:58;1.55;;;1.45;;
39502;SDS011;26970;49.900;10.774;2023-05-10T05:34:23;1.52;;;1.40;;
39502;SDS011;26970;49.900;10.774;2023-05-10T05:36:49;2.40;;;1.45;;
39502;SDS011;26970;49.900;10.774;2023-05-10T05:39:16;2.08;;;1.48;;
39502;SDS011;26970;49.900;10.774;2023-05-10T05:41:41;2.78;;;1.50;;
39502;SDS011;26970;49.900;10.774;2023-05-10T05:44:07;2.35;;;1.48;;
39502;SDS011;26970;49.900;10.774;2023-05-10T05:46:33;4.32;;;1.55;;
39502;SDS011;26970;49.900;10.774;2023-05-10T05:48:59;1.80;;;1.60;;
39502;SDS011;26970;49.900;10.774;2023-05-10T05:51:24;2.00;;;1.40;;
39502;SDS011;26970;49.900;10.774;2023-05-10T05:53:50;2.88;;;1.65;;
39502;SDS011;26970;49.900;10.774;2023-05-10T05:56:16;6.63;;;1.48;;
39502;SDS011;26970;49.900;10.774;2023-05-10T05:58:48;2.30;;;1.70;;
39502;SDS011;26970;49.900;10.774;2023-05-10T06:01:15;1.65;;;1.50;;
39502;SDS011;26970;49.900;10.774;2023-05-10T06:03:41;2.35;;;1.60;;
39502;SDS011;26970;49.900;10.774;2023-05-10T06:06:06;1.98;;;1.60;;
39502;SDS011;26970;49.900;10.774;2023-05-10T06:08:32;3.45;;;1.52;;
39502;SDS011;26970;49.900;10.774;2023-05-10T06:10:58;1.92;;;1.70;;
39502;SDS011;26970;49.900;10.774;2023-05-10T06:13:25;2.92;;;1.48;;
39502;SDS011;26970;49.900;10.774;2023-05-10T06:15:53;1.58;;;1.40;;
39502;SDS011;26970;49.900;10.774;2023-05-10T06:18:19;1.98;;;1.60;;
39502;SDS011;26970;49.900;10.774;2023-05-10T06:20:44;2.97;;;1.60;;
39502;SDS011;26970;49.900;10.774;2023-05-10T06:23:10;2.20;;;1.42;;
39502;SDS011;26970;49.900;10.774;2023-05-10T06:25:36;1.95;;;1.60;;
39502;SDS011;26970;49.900;10.774;2023-05-10T06:28:01;2.42;;;1.50;;
39502;SDS011;26970;49.900;10.774;2023-05-10T06:30:27;1.52;;;1.42;;
39502;SDS011;26970;49.900;10.774;2023-05-10T06:32:53;1.63;;;1.50;;
39502;SDS011;26970;49.900;10.774;2023-05-10T06:35:19;1.95;;;1.45;;
39502;SDS011;26970;49.900;10.774;2023-05-10T06:37:45;3.35;;;1.67;;
39502;SDS011;26970;49.900;10.774;2023-05-10T06:40:11;1.95;;;1.40;;
39502;SDS011;26970;49.900;10.774;2023-05-10T06:42:37;2.38;;;1.58;;
39502;SDS011;26970;49.900;10.774;2023-05-10T06:45:03;3.30;;;1.42;;
39502;SDS011;26970;49.900;10.774;2023-05-10T06:47:28;2.20;;;1.45;;
39502;SDS011;26970;49.900;10.774;2023-05-10T06:49:54;1.52;;;1.30;;
39502;SDS011;26970;49.900;10.774;2023-05-10T06:52:20;1.90;;;1.40;;
39502;SDS011;26970;49.900;10.774;2023-05-10T06:54:46;1.60;;;1.33;;
39502;SDS011;26970;49.900;10.774;2023-05-10T06:57:12;5.00;;;1.48;;
39502;SDS011;26970;49.900;10.774;2023-05-10T06:59:37;1.73;;;1.40;;
39502;SDS011;26970;49.900;10.774;2023-05-10T07:02:03;1.52;;;1.20;;
39502;SDS011;26970;49.900;10.774;2023-05-10T07:04:28;1.65;;;1.08;;
39502;SDS011;26970;49.900;10.774;2023-05-10T07:06:54;3.38;;;1.25;;
39502;SDS011;26970;49.900;10.774;2023-05-10T07:09:19;1.17;;;1.05;;
39502;SDS011;26970;49.900;10.774;2023-05-10T07:11:45;1.50;;;1.00;;
39502;SDS011;26970;49.900;10.774;2023-05-10T07:14:11;1.85;;;1.00;;
39502;SDS011;26970;49.900;10.774;2023-05-10T07:16:36;2.15;;;1.40;;
39502;SDS011;26970;49.900;10.774;2023-05-10T07:19:02;1.48;;;1.20;;
39502;SDS011;26970;49.900;10.774;2023-05-10T07:21:30;10.60;;;1.70;;
39502;SDS011;26970;49.900;10.774;2023-05-10T07:23:56;1.70;;;1.20;;
39502;SDS011;26970;49.900;10.774;2023-05-10T07:26:21;2.83;;;1.20;;
39502;SDS011;26970;49.900;10.774;2023-05-10T07:28:47;1.80;;;0.75;;
39502;SDS011;26970;49.900;10.774;2023-05-10T07:31:12;2.03;;;1.13;;
39502;SDS011;26970;49.900;10.774;2023-05-10T07:33:38;3.28;;;1.25;;
39502;SDS011;26970;49.900;10.774;2023-05-10T07:36:04;1.17;;;1.08;;
39502;SDS011;26970;49.900;10.774;2023-05-10T07:38:29;2.35;;;1.20;;
39502;SDS011;26970;49.900;10.774;2023-05-10T07:41:07;2.17;;;1.20;;
39502;SDS011;26970;49.900;10.774;2023-05-10T07:43:36;1.88;;;0.93;;
39502;SDS011;26970;49.900;10.774;2023-05-10T07:46:02;2.40;;;1.38;;
39502;SDS011;26970;49.900;10.774;2023-05-10T07:48:27;5.07;;;1.38;;
39502;SDS011;26970;49.900;10.774;2023-05-10T07:50:53;2.17;;;1.20;;
39502;SDS011;26970;49.900;10.774;2023-05-10T07:53:18;1.20;;;1.00;;
39502;SDS011;26970;49.900;10.774;2023-05-10T07:55:44;1.77;;;1.20;;
39502;SDS011;26970;49.900;10.774;2023-05-10T07:58:15;1.10;;;0.97;;
39502;SDS011;26970;49.900;10.774;2023-05-10T08:00:41;1.15;;;1.02;;
39502;SDS011;26970;49.900;10.774;2023-05-10T08:03:06;2.08;;;1.20;;
39502;SDS011;26970;49.900;10.774;2023-05-10T08:05:32;1.58;;;1.23;;
39502;SDS011;26970;49.900;10.774;2023-05-10T08:07:58;1.40;;;1.30;;
39502;SDS011;26970;49.900;10.774;2023-05-10T08:10:24;2.42;;;1.35;;
39502;SDS011;26970;49.900;10.774;2023-05-10T08:12:50;1.35;;;1.15;;
39502;SDS011;26970;49.900;10.774;2023-05-10T08:15:16;3.60;;;1.20;;
39502;SDS011;26970;49.900;10.774;2023-05-10T08:17:41;3.03;;;1.30;;
39502;SDS011;26970;49.900;10.774;2023-05-10T08:20:08;4.53;;;1.20;;
39502;SDS011;26970;49.900;10.774;2023-05-10T08:22:34;1.60;;;1.30;;
39502;SDS011;26970;49.900;10.774;2023-05-10T08:24:59;2.08;;;1.23;;
39502;SDS011;26970;49.900;10.774;2023-05-10T08:27:25;1.58;;;1.38;;
39502;SDS011;26970;49.900;10.774;2023-05-10T08:29:50;1.25;;;1.15;;
39502;SDS011;26970;49.900;10.774;2023-05-10T08:32:17;2.75;;;1.25;;
39502;SDS011;26970;49.900;10.774;2023-05-10T08:34:42;2.15;;;1.10;;
39502;SDS011;26970;49.900;10.774;2023-05-10T08:37:08;3.95;;;1.10;;
39502;SDS011;26970;49.900;10.774;2023-05-10T08:39:35;3.38;;;1.25;;
39502;SDS011;26970;49.900;10.774;2023-05-10T08:42:01;3.35;;;1.63;;
39502;SDS011;26970;49.900;10.774;2023-05-10T08:44:30;1.70;;;1.45;;
39502;SDS011;26970;49.900;10.774;2023-05-10T08:46:57;1.75;;;1.55;;
39502;SDS011;26970;49.900;10.774;2023-05-10T08:49:27;2.67;;;1.48;;
39502;SDS011;26970;49.900;10.774;2023-05-10T08:51:55;3.72;;;1.80;;
39502;SDS011;26970;49.900;10.774;2023-05-10T08:54:24;2.25;;;1.52;;
39502;SDS011;26970;49.900;10.774;2023-05-10T08:56:50;3.08;;;1.80;;
39502;SDS011;26970;49.900;10.774;2023-05-10T08:59:16;2.72;;;1.60;;
39502;SDS011;26970;49.900;10.774;2023-05-10T09:01:43;2.17;;;1.50;;
39502;SDS011;26970;49.900;10.774;2023-05-10T09:04:13;4.25;;;1.80;;
39502;SDS011;26970;49.900;10.774;2023-05-10T09:06:38;2.72;;;1.70;;
39502;SDS011;26970;49.900;10.774;2023-05-10T09:09:04;3.28;;;1.90;;
39502;SDS011;26970;49.900;10.774;2023-05-10T09:11:30;3.33;;;2.00;;
39502;SDS011;26970;49.900;10.774;2023-05-10T09:13:57;2.42;;;1.80;;
39502;SDS011;26970;49.900;10.774;2023-05-10T09:16:23;4.68;;;1.77;;
39502;SDS011;26970;49.900;10.774;2023-05-10T09:18:48;4.65;;;2.15;;
39502;SDS011;26970;49.900;10.774;2023-05-10T09:21:14;2.40;;;1.70;;
39502;SDS011;26970;49.900;10.774;2023-05-10T09:23:44;4.35;;;1.95;;
39502;SDS011;26970;49.900;10.774;2023-05-10T09:26:10;2.53;;;1.77;;
39502;SDS011;26970;49.900;10.774;2023-05-10T09:28:55;2.40;;;1.85;;
39502;SDS011;26970;49.900;10.774;2023-05-10T09:31:22;2.45;;;1.85;;
39502;SDS011;26970;49.900;10.774;2023-05-10T09:33:49;2.90;;;1.70;;
39502;SDS011;26970;49.900;10.774;2023-05-10T09:36:16;2.85;;;1.88;;
39502;SDS011;26970;49.900;10.774;2023-05-10T09:38:45;3.60;;;2.00;;
39502;SDS011;26970;49.900;10.774;2023-05-10T09:41:21;5.25;;;2.00;;
39502;SDS011;26970;49.900;10.774;2023-05-10T09:43:48;4.75;;;1.90;;
39502;SDS011;26970;49.900;10.774;2023-05-10T09:46:17;6.60;;;2.17;;
39502;SDS011;26970;49.900;10.774;2023-05-10T09:48:44;2.95;;;1.80;;
39502;SDS011;26970;49.900;10.774;2023-05-10T09:51:21;4.18;;;2.00;;
39502;SDS011;26970;49.900;10.774;2023-05-10T09:54:11;3.10;;;1.98;;
39502;SDS011;26970;49.900;10.774;2023-05-10T09:56:38;3.65;;;1.90;;
39502;SDS011;26970;49.900;10.774;2023-05-10T09:59:06;4.13;;;1.85;;
39502;SDS011;26970;49.900;10.774;2023-05-10T10:01:33;3.42;;;1.60;;
39502;SDS011;26970;49.900;10.774;2023-05-10T10:04:02;2.45;;;1.58;;
39502;SDS011;26970;49.900;10.774;2023-05-10T10:06:39;1.73;;;1.23;;
39502;SDS011;26970;49.900;10.774;2023-05-10T10:09:05;4.07;;;1.40;;
39502;SDS011;26970;49.900;10.774;2023-05-10T10:11:34;4.20;;;1.83;;
39502;SDS011;26970;49.900;10.774;2023-05-10T10:14:02;3.75;;;1.50;;
39502;SDS011;26970;49.900;10.774;2023-05-10T10:16:30;1.83;;;1.40;;
39502;SDS011;26970;49.900;10.774;2023-05-10T10:18:56;2.40;;;1.55;;
39502;SDS011;26970;49.900;10.774;2023-05-10T10:21:22;2.47;;;1.40;;
39502;SDS011;26970;49.900;10.774;2023-05-10T10:23:48;3.53;;;1.70;;
39502;SDS011;26970;49.900;10.774;2023-05-10T10:26:14;7.15;;;1.50;;
39502;SDS011;26970;49.900;10.774;2023-05-10T10:29:00;2.33;;;1.50;;
39502;SDS011;26970;49.900;10.774;2023-05-10T10:34:05;4.35;;;1.55;;
39502;SDS011;26970;49.900;10.774;2023-05-10T10:36:55;2.92;;;1.52;;
39502;SDS011;26970;49.900;10.774;2023-05-10T10:39:26;4.57;;;1.60;;
39502;SDS011;26970;49.900;10.774;2023-05-10T10:41:53;2.78;;;1.55;;
39502;SDS011;26970;49.900;10.774;2023-05-10T10:49:27;2.22;;;1.60;;
39502;SDS011;26970;49.900;10.774;2023-05-10T10:57:26;2.40;;;1.50;;
39502;SDS011;26970;49.900;10.774;2023-05-10T11:03:12;8.35;;;1.70;;
39502;SDS011;26970;49.900;10.774;2023-05-10T11:05:43;3.35;;;1.58;;
39502;SDS011;26970;49.900;10.774;2023-05-10T11:08:16;3.22;;;1.60;;
39502;SDS011;26970;49.900;10.774;2023-05-10T11:16:13;2.50;;;1.58;;
39502;SDS011;26970;49.900;10.774;2023-05-10T11:18:40;3.25;;;1.75;;
39502;SDS011;26970;49.900;10.774;2023-05-10T11:21:16;1.77;;;1.50;;
39502;SDS011;26970;49.900;10.774;2023-05-10T11:23:49;4.80;;;1.85;;
39502;SDS011;26970;49.900;10.774;2023-05-10T11:26:17;2.60;;;1.60;;
39502;SDS011;26970;49.900;10.774;2023-05-10T11:31:13;5.78;;;1.73;;
39502;SDS011;26970;49.900;10.774;2023-05-10T11:33:46;4.20;;;1.55;;
39502;SDS011;26970;49.900;10.774;2023-05-10T11:36:17;2.55;;;2.05;;
39502;SDS011;26970;49.900;10.774;2023-05-10T11:41:14;2.30;;;1.42;;
39502;SDS011;26970;49.900;10.774;2023-05-10T11:43:42;2.42;;;1.40;;
39502;SDS011;26970;49.900;10.774;2023-05-10T11:46:08;2.67;;;1.55;;
39502;SDS011;26970;49.900;10.774;2023-05-10T11:48:36;2.90;;;1.50;;
39502;SDS011;26970;49.900;10.774;2023-05-10T11:51:04;3.65;;;1.60;;
39502;SDS011;26970;49.900;10.774;2023-05-10T11:53:31;3.05;;;1.50;;
39502;SDS011;26970;49.900;10.774;2023-05-10T11:56:04;6.00;;;2.00;;
39502;SDS011;26970;49.900;10.774;2023-05-10T11:58:31;4.15;;;1.70;;
39502;SDS011;26970;49.900;10.774;2023-05-10T12:01:01;4.00;;;2.20;;
39502;SDS011;26970;49.900;10.774;2023-05-10T12:03:28;3.22;;;1.70;;
39502;SDS011;26970;49.900;10.774;2023-05-10T12:05:54;2.95;;;1.80;;
39502;SDS011;26970;49.900;10.774;2023-05-10T12:08:22;2.63;;;1.67;;
39502;SDS011;26970;49.900;10.774;2023-05-10T12:10:48;4.88;;;1.80;;
39502;SDS011;26970;49.900;10.774;2023-05-10T12:13:14;4.32;;;1.85;;
39502;SDS011;26970;49.900;10.774;2023-05-10T12:15:40;3.90;;;1.73;;
39502;SDS011;26970;49.900;10.774;2023-05-10T12:18:10;3.97;;;1.80;;
39502;SDS011;26970;49.900;10.774;2023-05-10T12:20:37;4.88;;;2.00;;
39502;SDS011;26970;49.900;10.774;2023-05-10T12:23:04;3.35;;;1.52;;
39502;SDS011;26970;49.900;10.774;2023-05-10T12:25:31;6.43;;;2.50;;
39502;SDS011;26970;49.900;10.774;2023-05-10T12:27:58;3.22;;;1.70;;
39502;SDS011;26970;49.900;10.774;2023-05-10T12:30:28;3.72;;;2.00;;
39502;SDS011;26970;49.900;10.774;2023-05-10T12:32:59;4.55;;;1.75;;
39502;SDS011;26970;49.900;10.774;2023-05-10T12:35:26;1.27;;;1.17;;
39502;SDS011;26970;49.900;10.774;2023-05-10T12:37:54;2.58;;;1.42;;
39502;SDS011;26970;49.900;10.774;2023-05-10T12:40:20;1.73;;;1.30;;
39502;SDS011;26970;49.900;10.774;2023-05-10T12:42:46;2.33;;;1.30;;
39502;SDS011;26970;49.900;10.774;2023-05-10T12:45:11;3.45;;;1.27;;
39502;SDS011;26970;49.900;10.774;2023-05-10T12:47:37;1.77;;;1.45;;
39502;SDS011;26970;49.900;10.774;2023-05-10T12:50:03;3.28;;;1.50;;
39502;SDS011;26970;49.900;10.774;2023-05-10T12:52:29;2.78;;;1.40;;
39502;SDS011;26970;49.900;10.774;2023-05-10T12:54:57;2.58;;;1.20;;
39502;SDS011;26970;49.900;10.774;2023-05-10T12:57:23;1.95;;;1.20;;
39502;SDS011;26970;49.900;10.774;2023-05-10T12:59:49;1.70;;;1.50;;
39502;SDS011;26970;49.900;10.774;2023-05-10T13:02:15;1.48;;;1.20;;
39502;SDS011;26970;49.900;10.774;2023-05-10T13:04:42;2.63;;;1.40;;
39502;SDS011;26970;49.900;10.774;2023-05-10T13:07:09;2.45;;;1.50;;
39502;SDS011;26970;49.900;10.774;2023-05-10T13:09:35;2.30;;;1.30;;
39502;SDS011;26970;49.900;10.774;2023-05-10T13:12:00;2.63;;;1.40;;
39502;SDS011;26970;49.900;10.774;2023-05-10T13:14:26;3.85;;;1.50;;
39502;SDS011;26970;49.900;10.774;2023-05-10T13:16:52;3.22;;;1.50;;
39502;SDS011;26970;49.900;10.774;2023-05-10T13:19:18;1.90;;;1.38;;
39502;SDS011;26970;49.900;10.774;2023-05-10T13:21:44;3.40;;;1.40;;
39502;SDS011;26970;49.900;10.774;2023-05-10T13:24:10;2.33;;;1.70;;
39502;SDS011;26970;49.900;10.774;2023-05-10T13:26:38;4.32;;;1.73;;
39502;SDS011;26970;49.900;10.774;2023-05-10T13:29:05;3.28;;;2.05;;
39502;SDS011;26970;49.900;10.774;2023-05-10T13:31:30;4.40;;;1.70;;
39502;SDS011;26970;49.900;10.774;2023-05-10T13:33:56;3.05;;;1.60;;
39502;SDS011;26970;49.900;10.774;2023-05-10T13:36:21;2.33;;;1.50;;
39502;SDS011;26970;49.900;10.774;2023-05-10T13:38:47;2.55;;;1.75;;
39502;SDS011;26970;49.900;10.774;2023-05-10T13:41:13;2.63;;;1.40;;
39502;SDS011;26970;49.900;10.774;2023-05-10T13:43:39;4.05;;;1.65;;
39502;SDS011;26970;49.900;10.774;2023-05-10T13:46:05;1.45;;;1.20;;
39502;SDS011;26970;49.900;10.774;2023-05-10T13:48:30;2.33;;;1.30;;
39502;SDS011;26970;49.900;10.774;2023-05-10T13:50:56;1.98;;;1.20;;
39502;SDS011;26970;49.900;10.774;2023-05-10T13:53:22;1.73;;;1.33;;
39502;SDS011;26970;49.900;10.774;2023-05-10T13:55:48;3.40;;;1.45;;
39502;SDS011;26970;49.900;10.774;2023-05-10T13:58:14;2.53;;;1.40;;
39502;SDS011;26970;49.900;10.774;2023-05-10T14:00:39;2.40;;;1.20;;
39502;SDS011;26970;49.900;10.774;2023-05-10T14:03:05;1.63;;;1.30;;
39502;SDS011;26970;49.900;10.774;2023-05-10T14:05:31;3.65;;;1.40;;
39502;SDS011;26970;49.900;10.774;2023-05-10T14:07:57;3.45;;;1.67;;
39502;SDS011;26970;49.900;10.774;2023-05-10T14:10:23;3.55;;;1.65;;
39502;SDS011;26970;49.900;10.774;2023-05-10T14:12:49;3.45;;;1.70;;
39502;SDS011;26970;49.900;10.774;2023-05-10T14:15:15;2.40;;;1.70;;
39502;SDS011;26970;49.900;10.774;2023-05-10T14:17:41;4.88;;;1.90;;
39502;SDS011;26970;49.900;10.774;2023-05-10T14:20:07;3.85;;;1.85;;
39502;SDS011;26970;49.900;10.774;2023-05-10T14:22:33;3.00;;;1.80;;
39502;SDS011;26970;49.900;10.774;2023-05-10T14:24:59;4.10;;;1.95;;
39502;SDS011;26970;49.900;10.774;2023-05-10T14:27:25;2.17;;;1.48;;
39502;SDS011;26970;49.900;10.774;2023-05-10T14:29:50;3.53;;;1.65;;
39502;SDS011;26970;49.900;10.774;2023-05-10T14:32:16;5.15;;;1.50;;
39502;SDS011;26970;49.900;10.774;2023-05-10T14:34:42;5.32;;;1.50;;
39502;SDS011;26970;49.900;10.774;2023-05-10T14:37:09;3.05;;;1.58;;
39502;SDS011;26970;49.900;10.774;2023-05-10T14:39:36;2.88;;;1.38;;
39502;SDS011;26970;49.900;10.774;2023-05-10T14:42:02;3.42;;;1.65;;
39502;SDS011;26970;49.900;10.774;2023-05-10T14:44:27;2.83;;;1.70;;
39502;SDS011;26970;49.900;10.774;2023-05-10T14:46:53;2.50;;;1.60;;
39502;SDS011;26970;49.900;10.774;2023-05-10T14:49:19;3.38;;;1.65;;
39502;SDS011;26970;49.900;10.774;2023-05-10T14:51:47;1.50;;;1.20;;
39502;SDS011;26970;49.900;10.774;2023-05-10T14:54:13;1.42;;;1.10;;
39502;SDS011;26970;49.900;10.774;2023-05-10T14:56:39;2.92;;;1.23;;
39502;SDS011;26970;49.900;10.774;2023-05-10T14:59:06;1.95;;;1.20;;
39502;SDS011;26970;49.900;10.774;2023-05-10T15:01:32;4.43;;;1.27;;
39502;SDS011;26970;49.900;10.774;2023-05-10T15:03:59;0.77;;;0.77;;
39502;SDS011;26970;49.900;10.774;2023-05-10T15:06:34;1.25;;;0.98;;
39502;SDS011;26970;49.900;10.774;2023-05-10T15:09:00;3.25;;;1.20;;
39502;SDS011;26970;49.900;10.774;2023-05-10T15:11:28;3.53;;;1.20;;
39502;SDS011;26970;49.900;10.774;2023-05-10T15:13:54;2.35;;;1.15;;
39502;SDS011;26970;49.900;10.774;2023-05-10T15:16:20;1.85;;;1.20;;